Syner, Pennsylvania
Current Conditions -  °F | °C
As of 7:58 PM on Wednesday 22 Oct 2014 (Local Time) from KMUI Reporting Station
Overcast Overcast  
Wind Chill: 53°   Ceiling: 2400
Heat Index: 53°   Visibility: 10mi
Dew Point: 48°   Wind: 8mph
Humidity: 83%   Direction: 40°NE
Pressure: 29.96"   Gusts: NA
Location:  40.3819°N, 76.5718°W
Report Text: KMUI 222358Z AUTO 04007KT 340V070 10SM OVC024 12/09 A2996 RMK AO2 SLP149 T01150087 10127 20115 53004 $
Loading
Personal Weather Stations






























Interactive Weather Map
Tropical Storm Tracking
New forecast layout! Learn more

10-Day Weather Forecast

Advertisements
Track Severe Weather on mobile